createdAt,value
2023-03-02T05:30:39.769Z,1.99
2023-03-02T05:33:42.491Z,1.99
2023-03-02T05:36:45.487Z,1.59
2023-03-02T05:39:48.102Z,1.63
2023-03-02T05:42:50.881Z,1.52
2023-03-02T05:45:53.470Z,1.66
2023-03-02T05:48:56.108Z,1.64
2023-03-02T05:51:58.761Z,1.75
2023-03-02T05:55:01.345Z,1.64
2023-03-02T05:58:06.098Z,1.87
2023-03-02T06:01:12.258Z,1.91
2023-03-02T06:04:17.368Z,2.17
2023-03-02T06:07:19.956Z,2.38
2023-03-02T06:10:22.591Z,2.45
2023-03-02T06:13:25.154Z,2.53
2023-03-02T06:16:27.842Z,2.67
2023-03-02T06:19:30.449Z,2.67
2023-03-02T06:22:33.051Z,2.95
2023-03-02T06:25:37.146Z,3.09
2023-03-02T06:28:51.375Z,3.22
2023-03-02T06:31:55.700Z,3.23
2023-03-02T06:34:58.434Z,3.51
2023-03-02T06:38:00.977Z,3.66
2023-03-02T06:41:04.603Z,3.76
2023-03-02T06:44:08.255Z,3.95
2023-03-02T06:47:10.933Z,4.17
2023-03-02T06:50:13.480Z,4.47
2023-03-02T06:53:18.535Z,4.72
2023-03-02T06:56:21.175Z,4.85
2023-03-02T06:59:23.785Z,4.99
2023-03-02T07:02:26.412Z,5.06
2023-03-02T07:05:32.246Z,5.37
2023-03-02T07:08:34.877Z,5.48
2023-03-02T07:11:37.486Z,5.65
2023-03-02T07:14:40.088Z,5.20
2023-03-02T07:17:43.830Z,5.39
2023-03-02T07:20:46.453Z,5.28
2023-03-02T07:23:49.035Z,5.66
2023-03-02T07:26:51.821Z,5.90
2023-03-02T07:29:54.477Z,6.16
2023-03-02T07:32:57.793Z,6.20
2023-03-02T07:36:00.690Z,6.39
2023-03-02T07:39:03.723Z,6.58
2023-03-02T07:42:09.037Z,6.73
2023-03-02T07:45:11.761Z,6.61
2023-03-02T07:48:14.275Z,6.78
2023-03-02T07:51:16.829Z,6.86
2023-03-02T07:54:19.385Z,7.09
2023-03-02T07:57:21.991Z,7.05
2023-03-02T08:00:24.751Z,6.97
2023-03-02T08:03:27.240Z,7.02
2023-03-02T08:06:30.299Z,7.02
2023-03-02T08:09:34.977Z,7.21
2023-03-02T08:12:38.035Z,7.06
2023-03-02T08:15:40.942Z,7.37
2023-03-02T08:18:43.684Z,7.36
2023-03-02T08:21:46.401Z,7.41
2023-03-02T08:24:48.992Z,7.50
2023-03-02T08:27:51.680Z,7.34
2023-03-02T08:31:01.002Z,7.38
2023-03-02T08:34:03.691Z,7.49
2023-03-02T08:37:09.187Z,7.64
2023-03-02T08:40:12.196Z,7.77
2023-03-02T08:43:14.820Z,7.90
2023-03-02T08:46:18.566Z,7.87
2023-03-02T08:49:21.276Z,7.89
2023-03-02T08:52:23.891Z,8.05
2023-03-02T08:55:26.712Z,7.87
2023-03-02T08:58:30.446Z,8.05
2023-03-02T09:01:35.158Z,8.09
2023-03-02T09:04:38.307Z,8.30
2023-03-02T09:07:41.056Z,8.16
2023-03-02T09:10:43.632Z,8.22
2023-03-02T09:13:46.267Z,8.32
2023-03-02T09:16:49.315Z,8.54
2023-03-02T09:19:51.855Z,8.65
2023-03-02T09:22:54.446Z,8.71
2023-03-02T09:25:57.056Z,8.74
2023-03-02T09:28:59.735Z,8.78
2023-03-02T09:32:02.404Z,8.85
2023-03-02T09:35:05.312Z,8.77
2023-03-02T09:38:08.052Z,8.61
2023-03-02T09:41:25.888Z,8.73
2023-03-02T09:44:47.030Z,8.82
2023-03-02T09:48:15.881Z,8.75
2023-03-02T09:51:36.828Z,8.82
2023-03-02T09:54:39.805Z,8.98
2023-03-02T09:57:42.553Z,8.99
2023-03-02T10:00:45.070Z,9.16
2023-03-02T10:03:56.518Z,9.35
2023-03-02T10:07:25.023Z,9.10
2023-03-02T10:10:40.916Z,9.34
2023-03-02T10:13:47.718Z,9.26
2023-03-02T10:17:21.404Z,9.47
2023-03-02T10:20:53.214Z,9.64
2023-03-02T10:24:21.384Z,9.50
2023-03-02T10:27:32.527Z,9.58
2023-03-02T10:30:35.897Z,9.52
2023-03-02T10:33:39.463Z,9.75
2023-03-02T10:36:43.945Z,9.92
2023-03-02T10:39:46.488Z,10.03
2023-03-02T10:42:48.998Z,9.95
2023-03-02T10:46:02.062Z,10.16
2023-03-02T10:49:04.700Z,10.00
2023-03-02T10:52:15.109Z,10.38
2023-03-02T10:55:17.776Z,10.33
2023-03-02T10:58:20.292Z,10.28
2023-03-02T11:01:22.949Z,10.33
2023-03-02T11:04:25.529Z,10.27
2023-03-02T11:07:28.985Z,10.45
2023-03-02T11:10:36.730Z,10.57
2023-03-02T11:13:45.171Z,10.56
2023-03-02T11:16:48.098Z,10.62
2023-03-02T11:19:52.787Z,10.70
2023-03-02T11:22:58.032Z,10.68
2023-03-02T11:26:02.363Z,10.73
2023-03-02T11:29:22.559Z,10.85
2023-03-02T11:32:27.702Z,11.10
2023-03-02T11:35:40.093Z,11.07
2023-03-02T11:38:50.948Z,10.98
2023-03-02T11:41:54.191Z,11.14
2023-03-02T11:44:56.838Z,11.11
2023-03-02T11:48:29.435Z,11.21
2023-03-02T11:51:44.668Z,11.14
2023-03-02T11:54:58.782Z,11.31
2023-03-02T12:01:12.967Z,11.32
2023-03-02T12:04:35.781Z,11.37
2023-03-02T12:07:38.330Z,11.40
2023-03-02T12:10:42.978Z,11.42
2023-03-02T12:13:54.941Z,11.47
2023-03-02T12:17:24.629Z,11.17
2023-03-02T12:20:28.868Z,11.40
2023-03-02T12:23:33.164Z,11.39
2023-03-02T12:26:37.502Z,11.40
2023-03-02T12:29:46.229Z,11.41
2023-03-02T12:33:03.470Z,11.44
2023-03-02T12:36:12.704Z,11.46
2023-03-02T12:39:54.550Z,11.48
2023-03-02T12:43:14.099Z,11.56
2023-03-02T12:46:29.714Z,11.53
2023-03-02T12:49:51.939Z,11.63
2023-03-02T12:52:59.546Z,11.74
2023-03-02T12:56:02.205Z,11.86
2023-03-02T12:59:04.860Z,11.74
2023-03-02T13:02:23.215Z,11.71
2023-03-02T13:05:27.966Z,11.77
2023-03-02T13:08:30.536Z,11.65
2023-03-02T13:11:34.375Z,11.71
2023-03-02T13:14:37.068Z,11.78
2023-03-02T13:17:39.626Z,11.72
2023-03-02T13:20:42.188Z,11.84
2023-03-02T13:23:50.870Z,11.97
2023-03-02T13:27:00.847Z,11.72
2023-03-02T13:30:21.990Z,11.78
2023-03-02T13:33:24.814Z,11.80
2023-03-02T13:36:40.287Z,11.73
2023-03-02T13:39:42.841Z,11.68
2023-03-02T13:42:45.418Z,11.67
2023-03-02T13:46:00.520Z,11.82
2023-03-02T13:49:10.774Z,11.92
2023-03-02T13:52:22.609Z,11.82
2023-03-02T13:55:25.469Z,11.96
2023-03-02T13:58:29.610Z,11.85
2023-03-02T14:01:32.292Z,11.98
2023-03-02T14:04:34.985Z,11.75
2023-03-02T14:07:37.599Z,11.85
2023-03-02T14:10:41.398Z,11.98
2023-03-02T14:13:50.295Z,11.70
2023-03-02T14:16:52.858Z,11.76
2023-03-02T14:19:55.798Z,11.98
2023-03-02T14:22:58.647Z,11.74
2023-03-02T14:26:01.259Z,11.84
2023-03-02T14:29:27.605Z,11.72
2023-03-02T14:32:31.157Z,11.89
2023-03-02T14:35:33.882Z,11.90
2023-03-02T14:38:36.443Z,11.74
2023-03-02T14:41:54.462Z,11.80
2023-03-02T14:45:02.180Z,11.82
2023-03-02T14:48:04.994Z,11.81
2023-03-02T14:51:19.281Z,11.87
2023-03-02T14:54:21.833Z,11.87
2023-03-02T14:57:26.604Z,11.94
2023-03-02T15:00:29.182Z,11.88
2023-03-02T15:03:32.065Z,11.85
2023-03-02T15:06:37.600Z,11.85
2023-03-02T15:09:40.348Z,11.81
2023-03-02T15:12:43.020Z,11.79
2023-03-02T15:15:46.119Z,11.80
2023-03-02T15:18:50.048Z,11.74
2023-03-02T15:21:53.022Z,11.63
2023-03-02T15:24:55.714Z,11.69
2023-03-02T15:27:58.361Z,11.67
2023-03-02T15:31:10.232Z,11.54
2023-03-02T15:34:12.901Z,11.62
2023-03-02T15:37:15.633Z,11.52
2023-03-02T15:40:18.321Z,11.62
2023-03-02T15:43:20.990Z,11.53
2023-03-02T15:46:23.717Z,11.60
2023-03-02T15:49:28.602Z,11.61
2023-03-02T15:52:31.278Z,11.56
2023-03-02T15:55:34.014Z,11.35
2023-03-02T15:58:36.640Z,11.31
2023-03-02T16:01:39.234Z,11.33
2023-03-02T16:04:41.776Z,11.03
2023-03-02T16:07:44.790Z,11.11
2023-03-02T16:11:01.229Z,11.12
2023-03-02T16:14:04.203Z,11.27
2023-03-02T16:17:06.824Z,11.05
2023-03-02T16:20:10.046Z,10.83
